Time;durP1;ratioP1;P1;durP2;ratioP2;P2;SDS_P1;SDS_P2;PMS_P1;PMS_P2;Temp;Humidity;BMP_temperature;BMP_pressure;BME280_temperature;BME280_humidity;BME280_pressure;Samples;Min_cycle;Max_cycle;Signal;HPM_P1;HPM_P2
2021/10/18 00:00:52;;;;;;;5.67;3.70;;;;;;;9.91;74.73;101497.72;5078704;28;20224;-67
2021/10/18 00:03:19;;;;;;;4.27;3.83;;;;;;;9.91;74.75;101500.38;5062942;28;20290;-66
2021/10/18 00:05:45;;;;;;;4.13;3.10;;;;;;;9.91;74.29;101511.00;5061050;28;20202;-67
2021/10/18 00:08:12;;;;;;;4.33;3.90;;;;;;;9.90;74.52;101503.09;5064422;28;20213;-67
2021/10/18 00:10:39;;;;;;;5.90;4.10;;;;;;;9.90;74.57;101508.41;5065873;28;20217;-67
2021/10/18 00:13:05;;;;;;;4.60;3.67;;;;;;;9.88;74.59;101511.16;5073869;28;20232;-66
2021/10/18 00:15:33;;;;;;;7.70;3.83;;;;;;;9.89;74.25;101512.00;5078885;28;20209;-66
2021/10/18 00:18:00;;;;;;;6.83;3.80;;;;;;;9.88;74.48;101496.97;5084708;28;20212;-66
2021/10/18 00:20:28;;;;;;;6.20;3.93;;;;;;;9.88;74.34;101507.63;5080340;28;20209;-66
2021/10/18 00:22:55;;;;;;;5.30;3.80;;;;;;;9.89;74.39;101499.56;5077662;28;20230;-66
2021/10/18 00:25:21;;;;;;;5.30;3.90;;;;;;;9.87;74.40;101493.47;5075042;28;20240;-67
2021/10/18 00:27:48;;;;;;;7.67;3.60;;;;;;;9.87;74.47;101495.25;5065359;28;20209;-66
2021/10/18 00:30:16;;;;;;;4.97;3.53;;;;;;;9.85;75.32;101494.50;5083403;28;20422;-67
2021/10/18 00:32:43;;;;;;;6.47;3.83;;;;;;;9.83;74.85;101499.03;5058860;28;20225;-67
2021/10/18 00:35:11;;;;;;;5.13;3.80;;;;;;;9.81;75.09;101495.56;5061543;28;20201;-66
2021/10/18 00:37:38;;;;;;;7.17;4.60;;;;;;;9.80;75.17;101501.81;5066134;28;20196;-67
2021/10/18 00:40:06;;;;;;;6.43;4.30;;;;;;;9.81;74.96;101508.88;5078407;28;20217;-66
2021/10/18 00:42:33;;;;;;;7.30;4.13;;;;;;;9.77;75.15;101504.63;5070879;28;20208;-66
2021/10/18 00:45:00;;;;;;;4.90;3.97;;;;;;;9.75;75.14;101516.19;5068668;28;20224;-66
2021/10/18 00:47:27;;;;;;;5.97;5.00;;;;;;;9.72;75.46;101507.47;5062456;28;20213;-67
2021/10/18 00:49:55;;;;;;;7.77;4.47;;;;;;;9.69;75.56;101505.81;5070331;28;20227;-66
2021/10/18 00:52:21;;;;;;;5.00;4.50;;;;;;;9.67;75.52;101514.84;5066631;28;20659;-67
2021/10/18 00:54:50;;;;;;;6.13;4.60;;;;;;;9.65;75.30;101509.56;5066485;28;20261;-66
2021/10/18 00:57:17;;;;;;;5.50;4.23;;;;;;;9.66;75.93;101507.78;5063618;28;20212;-66
2021/10/18 00:59:45;;;;;;;7.50;4.60;;;;;;;9.64;76.22;101501.66;5062009;28;20212;-66
2021/10/18 01:02:11;;;;;;;6.13;4.27;;;;;;;9.64;76.01;101499.88;5066153;28;20209;-66
2021/10/18 01:04:38;;;;;;;7.40;4.33;;;;;;;9.63;75.90;101502.59;5074618;28;20228;-66
2021/10/18 01:07:07;;;;;;;6.33;3.80;;;;;;;9.62;76.30;101490.22;5065105;28;20666;-66
2021/10/18 01:09:33;;;;;;;6.33;4.53;;;;;;;9.58;75.96;101489.50;5069715;28;20208;-66
2021/10/18 01:12:00;;;;;;;5.40;3.90;;;;;;;9.55;75.92;101486.97;5067729;28;20232;-67
2021/10/18 01:14:26;;;;;;;6.40;4.40;;;;;;;9.53;75.86;101485.31;5056972;28;20226;-67
2021/10/18 01:16:53;;;;;;;5.80;3.87;;;;;;;9.49;76.00;101483.75;5065252;28;20212;-66
2021/10/18 01:19:21;;;;;;;5.43;3.83;;;;;;;9.44;76.73;101491.94;5060935;28;20221;-66
2021/10/18 01:21:51;;;;;;;6.50;3.37;;;;;;;9.44;76.38;101496.38;5055951;28;20206;-66
2021/10/18 01:24:17;;;;;;;5.33;3.70;;;;;;;9.44;76.92;101493.72;5067289;28;20236;-66
2021/10/18 01:26:44;;;;;;;7.27;4.03;;;;;;;9.45;76.74;101491.00;5061062;28;20678;-67
2021/10/18 01:29:10;;;;;;;6.57;4.47;;;;;;;9.45;76.54;101493.66;5069028;28;20212;-66
2021/10/18 01:31:39;;;;;;;8.20;4.10;;;;;;;9.46;76.83;101492.72;5070286;28;20212;-66
2021/10/18 01:34:06;;;;;;;5.30;4.40;;;;;;;9.47;76.83;101507.75;5069560;28;20229;-66
2021/10/18 01:36:33;;;;;;;6.10;4.00;;;;;;;9.48;77.44;101496.19;5055812;28;20231;-66
2021/10/18 01:39:01;;;;;;;4.80;3.60;;;;;;;9.48;77.09;101512.13;5068422;28;20212;-67
2021/10/18 01:41:27;;;;;;;7.23;4.10;;;;;;;9.50;76.93;101514.69;5086154;28;20224;-66
2021/10/18 01:43:54;;;;;;;5.97;4.07;;;;;;;9.50;77.26;101515.56;5065094;28;20572;-66
2021/10/18 01:46:21;;;;;;;4.23;3.40;;;;;;;9.50;77.46;101512.91;5059437;28;20206;-67
2021/10/18 01:48:47;;;;;;;5.13;3.57;;;;;;;9.50;76.84;101510.25;5070152;28;20212;-66
2021/10/18 01:51:14;;;;;;;4.27;3.20;;;;;;;9.51;77.47;101509.31;5064918;28;20208;-66
2021/10/18 01:53:40;;;;;;;5.00;3.67;;;;;;;9.51;77.27;101511.13;5074288;28;20236;-66
2021/10/18 01:56:08;;;;;;;6.07;3.37;;;;;;;9.50;76.86;101515.56;5075459;28;20204;-67
2021/10/18 01:58:35;;;;;;;7.03;3.97;;;;;;;9.49;77.08;101516.53;5064923;28;20208;-66
2021/10/18 02:01:03;;;;;;;6.13;3.77;;;;;;;9.49;77.35;101511.22;5063647;28;20209;-66
2021/10/18 02:03:30;;;;;;;4.10;3.43;;;;;;;9.47;77.07;101507.75;5066582;28;20229;-67
2021/10/18 02:05:57;;;;;;;6.37;3.50;;;;;;;9.46;77.32;101508.69;5066441;28;20625;-66
2021/10/18 02:08:23;;;;;;;4.67;3.20;;;;;;;9.46;76.63;101503.38;5058394;28;20220;-66
2021/10/18 02:10:50;;;;;;;4.90;3.47;;;;;;;9.46;77.09;101497.19;5071677;28;20220;-67
2021/10/18 02:13:18;;;;;;;5.83;3.30;;;;;;;9.46;77.03;101495.38;5070120;28;20604;-66
2021/10/18 02:15:44;;;;;;;5.77;3.47;;;;;;;9.47;77.67;101488.28;5070853;28;20201;-67
2021/10/18 02:18:11;;;;;;;6.47;3.60;;;;;;;9.48;77.46;101498.84;5075215;28;20674;-67
2021/10/18 02:20:37;;;;;;;4.13;3.30;;;;;;;9.46;77.40;101487.41;5054952;28;20217;-66
2021/10/18 02:23:04;;;;;;;4.50;3.80;;;;;;;9.47;76.96;101490.94;5073255;28;20231;-67
2021/10/18 02:25:30;;;;;;;5.03;3.43;;;;;;;9.45;77.49;101495.47;5072288;28;20225;-66
2021/10/18 02:27:57;;;;;;;4.10;3.70;;;;;;;9.43;77.07;101492.88;5086260;28;20215;-66
2021/10/18 02:30:25;;;;;;;7.60;4.20;;;;;;;9.43;77.09;101499.97;5070990;28;20206;-66
2021/10/18 02:32:51;;;;;;;7.20;3.40;;;;;;;9.41;77.47;101505.34;5081195;28;20232;-66
2021/10/18 02:35:18;;;;;;;4.70;3.70;;;;;;;9.40;76.48;101501.84;5072469;28;20208;-66
2021/10/18 02:37:44;;;;;;;5.27;4.07;;;;;;;9.40;76.50;101500.97;5065810;28;20204;-66
2021/10/18 02:40:11;;;;;;;5.23;3.77;;;;;;;9.38;76.94;101498.38;5083464;28;20214;-66
2021/10/18 02:42:38;;;;;;;5.23;3.27;;;;;;;9.38;76.95;101492.19;5076533;28;20204;-67
2021/10/18 02:45:07;;;;;;;5.47;3.50;;;;;;;9.37;76.94;101495.78;5073974;28;20225;-67
2021/10/18 02:47:35;;;;;;;5.47;3.93;;;;;;;9.36;76.55;101480.78;5073356;28;20220;-66
2021/10/18 02:50:02;;;;;;;5.60;3.80;;;;;;;9.35;77.11;101489.66;5064092;28;20213;-66
2021/10/18 02:52:28;;;;;;;6.87;4.00;;;;;;;9.33;76.35;101486.22;5063192;28;20209;-66
2021/10/18 02:54:55;;;;;;;5.70;3.60;;;;;;;9.30;76.55;101497.88;5069509;28;20204;-67
2021/10/18 02:57:21;;;;;;;10.17;3.80;;;;;;;9.29;76.75;101504.13;5093220;28;20634;-66
2021/10/18 02:59:48;;;;;;;6.63;3.50;;;;;;;9.29;76.66;101496.16;5064260;28;20200;-66
2021/10/18 03:02:15;;;;;;;6.77;2.87;;;;;;;9.25;76.14;101504.31;5066452;28;20215;-66
2021/10/18 03:04:43;;;;;;;4.47;3.40;;;;;;;9.24;76.83;101499.94;5068650;28;20228;-67
2021/10/18 03:07:09;;;;;;;3.63;3.03;;;;;;;9.22;76.37;101507.09;5081085;28;20219;-67
2021/10/18 03:09:36;;;;;;;4.40;3.60;;;;;;;9.21;76.62;101502.72;5078377;28;20212;-67
2021/10/18 03:12:02;;;;;;;4.67;3.37;;;;;;;9.19;76.73;101505.44;5055213;28;20206;-67
2021/10/18 03:14:29;;;;;;;3.73;3.30;;;;;;;9.18;76.71;101511.69;5064902;28;20232;-66
2021/10/18 03:16:55;;;;;;;5.50;3.17;;;;;;;9.18;76.21;101509.03;5087629;28;20216;-66
2021/10/18 03:19:22;;;;;;;4.17;3.17;;;;;;;9.16;76.19;101513.53;5085206;28;20219;-66
2021/10/18 03:21:50;;;;;;;4.07;3.53;;;;;;;9.13;76.05;101500.41;5062144;28;20200;-66
2021/10/18 03:24:16;;;;;;;4.13;3.67;;;;;;;9.11;76.61;101504.06;5080194;28;20247;-66
2021/10/18 03:26:43;;;;;;;6.63;4.10;;;;;;;9.09;76.18;101503.28;5069359;28;20234;-66
2021/10/18 03:29:09;;;;;;;5.37;3.43;;;;;;;9.07;76.63;101505.13;5068710;28;20667;-66
2021/10/18 03:31:36;;;;;;;4.07;3.67;;;;;;;9.03;76.67;101510.56;5053553;28;20228;-66
2021/10/18 03:34:02;;;;;;;4.53;3.80;;;;;;;9.03;76.20;101517.66;5055307;28;20236;-66
2021/10/18 03:36:29;;;;;;;5.37;4.07;;;;;;;9.00;76.42;101516.00;5066677;28;20212;-66
2021/10/18 03:38:57;;;;;;;5.37;3.90;;;;;;;8.98;75.99;101512.53;5085844;28;20208;-66
2021/10/18 03:41:23;;;;;;;6.63;3.87;;;;;;;8.97;75.96;101516.13;5061989;28;20204;-66
2021/10/18 03:43:50;;;;;;;5.63;4.10;;;;;;;8.96;76.51;101522.38;5069852;28;20220;-66
2021/10/18 03:46:16;;;;;;;5.83;4.20;;;;;;;8.93;75.88;101524.31;5071787;28;20243;-66
2021/10/18 03:48:43;;;;;;;6.33;3.87;;;;;;;8.90;76.20;101520.00;5068575;28;20201;-66
2021/10/18 03:51:09;;;;;;;6.97;4.20;;;;;;;8.86;76.55;101515.75;5068537;28;20288;-66
2021/10/18 03:53:36;;;;;;;7.33;4.33;;;;;;;8.84;76.30;101520.25;5069402;28;20768;-67
2021/10/18 03:56:04;;;;;;;5.43;3.60;;;;;;;8.79;76.67;101522.22;5065496;28;20202;-66
2021/10/18 03:58:31;;;;;;;5.57;4.20;;;;;;;8.76;76.50;101525.03;5071306;28;20649;-66
2021/10/18 04:00:57;;;;;;;7.50;4.00;;;;;;;8.73;76.68;101527.81;5065160;28;20216;-66
2021/10/18 04:03:24;;;;;;;6.33;3.97;;;;;;;8.71;77.22;101529.66;5067947;28;20721;-66
2021/10/18 04:05:50;;;;;;;8.77;5.07;;;;;;;8.69;76.90;101527.06;5062636;28;20225;-66
2021/10/18 04:08:17;;;;;;;6.27;4.57;;;;;;;8.68;77.14;101522.69;5063780;28;20802;-66
2021/10/18 04:10:43;;;;;;;8.50;5.10;;;;;;;8.66;76.99;101526.34;5063309;28;20207;-66
2021/10/18 04:13:11;;;;;;;5.33;4.07;;;;;;;8.65;77.31;101529.91;5066253;28;20228;-66
2021/10/18 04:15:38;;;;;;;10.07;5.07;;;;;;;8.62;77.44;101524.72;5064742;28;20203;-66
2021/10/18 04:18:04;;;;;;;8.40;4.50;;;;;;;8.58;77.32;101521.34;5064028;28;20558;-67
2021/10/18 04:20:31;;;;;;;9.40;4.00;;;;;;;8.53;76.99;101531.28;5068995;28;20201;-66
2021/10/18 04:22:57;;;;;;;6.87;3.43;;;;;;;8.49;77.26;101531.47;5064423;28;20221;-66
2021/10/18 04:25:24;;;;;;;5.17;3.50;;;;;;;8.44;77.87;101536.97;5067166;28;20255;-66
2021/10/18 04:27:51;;;;;;;4.83;3.90;;;;;;;8.43;77.51;101537.00;5061321;28;20213;-66
2021/10/18 04:30:18;;;;;;;7.23;3.70;;;;;;;8.41;77.58;101537.09;5063376;28;20677;-67
2021/10/18 04:32:45;;;;;;;5.33;3.67;;;;;;;8.41;78.30;101541.56;5063902;28;20224;-66
2021/10/18 04:35:11;;;;;;;6.17;4.40;;;;;;;8.41;77.92;101539.75;5062178;28;20201;-67
2021/10/18 04:37:38;;;;;;;9.20;4.17;;;;;;;8.40;77.99;101545.13;5067046;28;20203;-68
2021/10/18 04:40:06;;;;;;;6.87;4.57;;;;;;;8.39;78.26;101541.63;5067058;28;20206;-67
2021/10/18 04:42:33;;;;;;;6.63;4.53;;;;;;;8.38;78.97;101537.22;5061240;28;20205;-66
2021/10/18 04:44:59;;;;;;;5.77;4.40;;;;;;;8.38;78.56;101537.22;5065486;28;20201;-66
2021/10/18 04:47:27;;;;;;;4.33;3.60;;;;;;;8.38;79.04;101544.31;5069029;28;20200;-67
2021/10/18 04:49:54;;;;;;;4.87;3.50;;;;;;;8.39;79.16;101540.75;5063320;28;20213;-66
2021/10/18 04:52:20;;;;;;;5.13;3.40;;;;;;;8.37;78.54;101537.28;5064916;28;20208;-66
2021/10/18 04:54:47;;;;;;;5.57;3.50;;;;;;;8.37;79.30;101532.84;5086466;22;20228;-66
2021/10/18 04:57:13;;;;;;;5.17;3.70;;;;;;;8.38;78.10;101533.72;5056940;28;20386;-66
2021/10/18 04:59:40;;;;;;;6.10;3.53;;;;;;;8.38;78.59;101539.88;5057161;28;20197;-66
2021/10/18 05:02:06;;;;;;;6.87;3.83;;;;;;;8.38;79.07;101544.31;5058552;28;20213;-67
2021/10/18 05:04:34;;;;;;;4.63;3.57;;;;;;;8.38;78.39;101542.53;5061256;28;20225;-66
2021/10/18 05:07:01;;;;;;;9.07;4.43;;;;;;;8.38;79.07;101541.66;5052657;28;20229;-66
2021/10/18 05:09:28;;;;;;;6.83;4.57;;;;;;;8.38;78.46;101546.97;5055629;28;20197;-66
2021/10/18 05:11:54;;;;;;;4.67;3.57;;;;;;;8.38;78.54;101546.97;5051439;28;20206;-67
2021/10/18 05:14:21;;;;;;;5.33;3.60;;;;;;;8.38;79.01;101547.84;5057715;28;20236;-66
2021/10/18 05:16:47;;;;;;;6.83;3.67;;;;;;;8.39;77.84;101551.38;5055013;28;20201;-66
2021/10/18 05:19:14;;;;;;;4.90;3.47;;;;;;;8.41;78.70;101552.16;5053828;28;20229;-66
2021/10/18 05:21:42;;;;;;;6.10;4.00;;;;;;;8.42;78.83;101548.59;5057202;28;20678;-66
2021/10/18 05:24:08;;;;;;;6.00;3.87;;;;;;;8.43;77.93;101550.28;5054717;28;20221;-66
2021/10/18 05:26:35;;;;;;;4.43;3.43;;;;;;;8.44;78.33;101552.88;5058696;28;20229;-66
2021/10/18 05:29:03;;;;;;;5.73;3.83;;;;;;;8.45;78.40;101543.13;5058622;28;20205;-66
2021/10/18 05:31:29;;;;;;;5.20;3.53;;;;;;;8.44;78.02;101547.56;5059672;28;20232;-66
2021/10/18 05:33:56;;;;;;;5.80;3.87;;;;;;;8.45;77.96;101554.63;5060942;28;20306;-66
2021/10/18 05:36:22;;;;;;;4.67;3.53;;;;;;;8.47;78.94;101557.22;5056217;28;20197;-66
2021/10/18 05:38:50;;;;;;;5.90;3.57;;;;;;;8.49;79.13;101564.19;5055767;28;20200;-66
2021/10/18 05:41:17;;;;;;;6.73;3.80;;;;;;;8.49;78.82;101568.63;5064119;28;20635;-66
2021/10/18 05:43:43;;;;;;;6.43;4.00;;;;;;;8.49;79.37;101568.63;5058299;28;20707;-67
2021/10/18 05:46:10;;;;;;;6.17;3.50;;;;;;;8.48;78.70;101570.44;5057247;28;20266;-66
2021/10/18 05:48:37;;;;;;;5.40;3.20;;;;;;;8.49;79.02;101563.31;5058283;28;20201;-66
2021/10/18 05:51:03;;;;;;;5.20;3.57;;;;;;;8.49;78.55;101563.31;5057967;28;20205;-66
2021/10/18 05:53:30;;;;;;;4.33;3.67;;;;;;;8.48;78.90;101570.44;5057867;28;20606;-66
2021/10/18 05:55:58;;;;;;;6.13;4.07;;;;;;;8.49;78.46;101577.47;5059174;28;20197;-64
2021/10/18 05:58:24;;;;;;;3.80;3.40;;;;;;;8.51;78.79;101583.59;5056668;28;20258;-66
2021/10/18 06:00:51;;;;;;;5.53;3.53;;;;;;;8.50;79.03;101578.34;5059688;28;20207;-67
2021/10/18 06:03:18;;;;;;;4.90;4.10;;;;;;;8.52;78.46;101589.75;5060575;28;20217;-66
2021/10/18 06:05:45;;;;;;;7.80;3.70;;;;;;;8.52;78.42;101584.44;5059392;28;20222;-66
2021/10/18 06:08:13;;;;;;;6.17;3.80;;;;;;;8.54;78.90;101580.81;5058264;28;20210;-66
2021/10/18 06:10:43;;;;;;;7.23;4.30;;;;;;;8.54;78.91;101594.09;5057112;28;20208;-66
2021/10/18 06:13:15;;;;;;;4.70;3.37;;;;;;;8.55;78.40;101593.16;5060047;28;20207;-68
2021/10/18 06:15:41;;;;;;;7.03;3.70;;;;;;;8.54;78.43;101590.56;5058913;28;20213;-68
2021/10/18 06:18:11;;;;;;;4.63;3.23;;;;;;;8.54;78.43;101593.22;5059752;28;20206;-66
2021/10/18 06:20:38;;;;;;;8.97;3.90;;;;;;;8.54;78.13;101595.88;5059943;28;20238;-65
2021/10/18 06:23:05;;;;;;;16.73;5.20;;;;;;;8.52;77.84;101601.25;5065631;28;20662;-65
2021/10/18 06:25:32;;;;;;;8.13;3.60;;;;;;;8.53;78.75;101599.47;5060023;28;20201;-66
2021/10/18 06:27:59;;;;;;;8.17;4.53;;;;;;;8.53;78.50;101604.75;5058314;28;20201;-65
2021/10/18 06:30:27;;;;;;;4.53;4.00;;;;;;;8.52;78.13;101609.22;5055830;28;20580;-65
2021/10/18 06:32:53;;;;;;;4.10;3.60;;;;;;;8.51;77.92;101602.16;5062650;28;20209;-65
2021/10/18 06:35:20;;;;;;;8.07;4.00;;;;;;;8.49;77.46;101603.16;5061038;28;20222;-65
2021/10/18 06:37:47;;;;;;;4.93;3.77;;;;;;;8.48;77.72;101612.91;5059744;28;20221;-65
2021/10/18 06:40:14;;;;;;;7.10;4.13;;;;;;;8.48;78.14;101601.41;5062192;28;20197;-66
2021/10/18 06:42:41;;;;;;;7.63;4.07;;;;;;;8.48;78.04;101606.72;5058516;28;20198;-66
2021/10/18 06:45:09;;;;;;;6.80;4.10;;;;;;;8.47;77.64;101607.66;5059901;28;20229;-66
2021/10/18 06:47:37;;;;;;;7.47;4.03;;;;;;;8.45;78.15;101605.06;5060043;28;20225;-66
2021/10/18 06:50:05;;;;;;;4.60;4.10;;;;;;;8.43;77.42;101606.03;5060901;28;20201;-66
2021/10/18 06:52:36;;;;;;;5.50;3.70;;;;;;;8.40;76.75;101615.00;5065196;28;20200;-66
2021/10/18 06:55:05;;;;;;;5.27;4.00;;;;;;;8.38;77.62;101618.66;5065528;28;20236;-65
2021/10/18 06:57:32;;;;;;;5.67;4.60;;;;;;;8.37;77.91;101619.56;5059902;28;20263;-65
2021/10/18 06:59:59;;;;;;;5.47;4.37;;;;;;;8.36;77.44;101621.34;5059348;28;20297;-65
2021/10/18 07:02:25;;;;;;;7.23;4.40;;;;;;;8.37;77.48;101624.88;5058976;28;20258;-65
2021/10/18 07:04:53;;;;;;;5.33;3.63;;;;;;;8.38;77.95;101626.59;5063988;28;20242;-66
2021/10/18 07:07:21;;;;;;;4.57;3.73;;;;;;;8.39;78.44;101623.03;5063827;28;20235;-66
2021/10/18 07:09:48;;;;;;;5.40;4.10;;;;;;;8.41;78.15;101623.84;5057706;28;20319;-66
2021/10/18 07:12:14;;;;;;;4.90;3.60;;;;;;;8.44;78.12;101636.97;5062450;28;20274;-65
2021/10/18 07:14:41;;;;;;;7.07;4.37;;;;;;;8.46;78.24;101633.34;5054005;28;20639;-65
2021/10/18 07:17:08;;;;;;;5.83;4.30;;;;;;;8.49;78.49;101638.53;5055918;28;20314;-65
2021/10/18 07:19:35;;;;;;;4.80;3.90;;;;;;;8.52;78.32;101638.41;5056796;28;20205;-66
2021/10/18 07:22:03;;;;;;;6.83;4.00;;;;;;;8.57;77.76;101641.75;5058006;28;20577;-66
2021/10/18 07:24:30;;;;;;;5.13;4.47;;;;;;;8.60;78.33;101641.63;5059302;28;20225;-66
2021/10/18 07:26:56;;;;;;;5.60;4.07;;;;;;;8.64;78.16;101639.72;5057649;28;20270;-68
2021/10/18 07:29:23;;;;;;;5.67;3.90;;;;;;;8.67;77.78;101637.81;5058644;28;20213;-67
2021/10/18 07:31:49;;;;;;;5.07;3.90;;;;;;;8.74;77.99;101649.06;5058713;28;20789;-67
2021/10/18 07:34:17;;;;;;;8.17;4.03;;;;;;;8.80;78.34;101638.16;5060827;28;20596;-67
2021/10/18 07:36:51;;;;;;;7.67;4.43;;;;;;;8.87;77.79;101637.00;5062616;28;20224;-66
2021/10/18 07:39:21;;;;;;;4.53;4.00;;;;;;;8.93;77.58;101642.09;5061195;28;20219;-67
2021/10/18 07:41:48;;;;;;;6.43;4.40;;;;;;;9.01;77.20;101636.44;5061931;28;20206;-66
2021/10/18 07:44:14;;;;;;;4.87;3.90;;;;;;;9.09;78.12;101638.78;5060952;28;20229;-66
2021/10/18 07:46:41;;;;;;;7.47;4.10;;;;;;;9.20;77.41;101647.16;5057718;28;20244;-66
2021/10/18 07:49:08;;;;;;;5.40;3.97;;;;;;;9.32;77.10;101639.53;5059180;28;20197;-66
2021/10/18 07:51:35;;;;;;;5.03;3.63;;;;;;;9.42;76.67;101645.34;5051395;28;20213;-65
2021/10/18 07:54:03;;;;;;;4.73;4.23;;;;;;;9.52;76.50;101649.31;5053737;28;20324;-66
2021/10/18 07:56:32;;;;;;;6.47;4.37;;;;;;;9.60;76.51;101641.91;5054366;28;20209;-66
2021/10/18 07:59:00;;;;;;;4.43;3.33;;;;;;;9.70;76.36;101647.66;5054850;28;20656;-66
2021/10/18 08:01:27;;;;;;;6.33;3.73;;;;;;;9.80;75.60;101656.13;5052210;28;20196;-66
2021/10/18 08:03:54;;;;;;;6.53;3.50;;;;;;;9.90;75.96;101652.09;5055475;28;20325;-66
2021/10/18 08:06:21;;;;;;;12.97;3.73;;;;;;;10.02;75.70;101652.44;5052936;28;20690;-66
2021/10/18 08:08:58;;;;;;;4.63;3.13;;;;;;;10.13;74.66;101651.94;5052181;28;20212;-65
2021/10/18 08:11:24;;;;;;;8.23;2.50;;;;;;;10.25;74.59;101648.75;5058115;28;20517;-66
2021/10/18 08:13:52;;;;;;;13.60;3.27;;;;;;;10.37;73.45;101647.34;5055959;28;20317;-67
2021/10/18 08:16:19;;;;;;;4.93;2.70;;;;;;;10.50;72.71;101652.94;5053997;28;20656;-67
2021/10/18 08:18:46;;;;;;;7.70;2.60;;;;;;;10.61;72.37;101643.50;5061647;28;20212;-67
2021/10/18 08:21:13;;;;;;;6.83;2.77;;;;;;;10.72;71.07;101643.00;5053532;28;20205;-67
2021/10/18 08:23:42;;;;;;;3.87;2.27;;;;;;;10.82;70.12;101652.25;5053397;28;20498;-67
2021/10/18 08:26:09;;;;;;;2.37;1.93;;;;;;;10.93;69.09;101649.91;5057244;28;20271;-68
2021/10/18 08:28:35;;;;;;;3.60;2.53;;;;;;;11.05;68.59;101654.69;5053107;28;20663;-67
2021/10/18 08:31:03;;;;;;;4.77;2.17;;;;;;;11.18;67.87;101652.25;5058580;28;20212;-67
2021/10/18 08:33:31;;;;;;;3.47;2.50;;;;;;;11.31;67.20;101649.81;5061062;28;20674;-67
2021/10/18 08:35:57;;;;;;;2.40;2.20;;;;;;;11.46;67.08;101651.75;5062140;28;20207;-67
2021/10/18 08:41:31;;;;;;;3.07;2.03;;;;;;;11.72;65.50;101647.72;5023744;28;20209;-67
2021/10/18 08:44:16;;;;;;;2.73;1.97;;;;;;;11.83;65.09;101648.03;5020857;28;20279;-67
2021/10/18 08:46:47;;;;;;;4.40;2.00;;;;;;;11.95;64.56;101644.72;5044744;28;20227;-68
2021/10/18 08:49:13;;;;;;;3.97;2.10;;;;;;;12.06;63.88;101652.16;5062235;28;20214;-68
2021/10/18 08:51:40;;;;;;;5.13;2.27;;;;;;;12.15;63.39;101651.69;5066006;28;20219;-67
2021/10/18 08:54:09;;;;;;;3.93;2.07;;;;;;;12.22;62.54;101660.19;5067672;28;20235;-67
2021/10/18 08:56:37;;;;;;;3.13;2.50;;;;;;;12.27;62.17;101643.00;5057764;28;20239;-67
2021/10/18 08:59:04;;;;;;;4.77;3.47;;;;;;;12.31;61.66;101646.38;5058199;28;20203;-67
2021/10/18 09:01:44;;;;;;;3.77;2.00;;;;;;;12.35;61.25;101646.13;5054558;28;20212;-67
2021/10/18 09:04:25;;;;;;;4.03;1.97;;;;;;;12.41;60.91;101644.91;5050480;28;20598;-67
2021/10/18 09:06:53;;;;;;;3.93;2.10;;;;;;;12.47;60.87;101642.75;5057904;28;20919;-67
2021/10/18 09:09:23;;;;;;;4.77;2.30;;;;;;;12.53;60.25;101641.56;5051512;28;20201;-67
2021/10/18 09:11:51;;;;;;;6.33;3.40;;;;;;;12.59;60.19;101646.53;5058550;28;20247;-66
2021/10/18 09:14:17;;;;;;;4.30;2.57;;;;;;;12.69;60.26;101646.91;5056527;28;20228;-67
2021/10/18 09:16:47;;;;;;;3.70;2.37;;;;;;;12.77;60.05;101648.19;5060925;28;20552;-67
2021/10/18 09:19:16;;;;;;;3.27;2.20;;;;;;;12.85;59.41;101650.44;5057548;28;20708;-66
2021/10/18 09:21:45;;;;;;;3.77;2.33;;;;;;;12.91;59.31;101643.84;5060729;28;20296;-66
2021/10/18 09:24:14;;;;;;;3.63;2.60;;;;;;;12.98;59.14;101654.13;5059335;28;20221;-66
2021/10/18 09:26:41;;;;;;;4.30;2.70;;;;;;;13.05;59.01;101655.50;5059774;28;20275;-69
2021/10/18 09:29:10;;;;;;;6.43;2.50;;;;;;;13.12;58.79;101656.00;5057409;28;20211;-67
2021/10/18 09:31:38;;;;;;;3.73;2.00;;;;;;;13.20;58.94;101660.00;5057818;28;20209;-67
2021/10/18 09:34:08;;;;;;;3.70;2.77;;;;;;;13.29;58.88;101671.09;5060441;28;20226;-67
2021/10/18 09:36:35;;;;;;;4.03;2.20;;;;;;;13.38;58.50;101671.44;5061118;28;20201;-67
2021/10/18 09:39:15;;;;;;;2.33;1.97;;;;;;;13.47;58.57;101672.69;5058214;28;20275;-67
2021/10/18 09:41:55;;;;;;;3.77;2.20;;;;;;;13.53;58.28;101678.56;5061968;28;20205;-67
2021/10/18 09:44:33;;;;;;;3.43;1.93;;;;;;;13.58;57.29;101675.63;5062040;28;20236;-66
2021/10/18 09:47:23;;;;;;;4.07;2.40;;;;;;;13.62;57.71;101674.44;5063656;28;20229;-67
2021/10/18 10:55:57;;;;;;;2.33;1.90;;;;;;;14.75;53.61;101637.94;5046483;28;20600;-68
2021/10/18 10:58:48;;;;;;;3.40;2.20;;;;;;;14.79;53.35;101631.44;5050928;28;20205;-68
2021/10/18 11:01:43;;;;;;;3.60;1.97;;;;;;;14.85;52.79;101621.16;5048733;28;20203;-71
2021/10/18 11:04:40;;;;;;;4.33;1.70;;;;;;;14.90;53.45;101624.38;5044964;28;20223;-69
2021/10/18 11:07:08;;;;;;;8.37;7.57;;;;;;;14.95;52.72;101621.41;5006189;28;20230;-69
2021/10/18 11:09:36;;;;;;;5.50;2.80;;;;;;;14.95;52.94;101624.09;5017092;28;20579;-70
2021/10/18 11:12:05;;;;;;;2.03;1.70;;;;;;;14.99;52.98;101622.06;5019017;28;20199;-69
2021/10/18 11:14:32;;;;;;;2.77;2.07;;;;;;;15.03;52.93;101626.28;5016573;28;20218;-68
2021/10/18 11:16:59;;;;;;;4.40;2.00;;;;;;;15.05;52.74;101624.34;5012226;28;20199;-69
2021/10/18 11:19:25;;;;;;;1.73;1.60;;;;;;;15.07;52.80;101622.41;5019288;28;20218;-70
2021/10/18 11:21:56;;;;;;;3.73;1.70;;;;;;;15.10;52.50;101633.81;5022162;28;20206;-67
2021/10/18 11:24:23;;;;;;;3.40;2.17;;;;;;;15.10;52.44;101636.47;5019933;28;20218;-69
2021/10/18 11:26:54;;;;;;;4.27;1.83;;;;;;;15.13;52.80;101625.56;5014730;28;20262;-67
2021/10/18 11:29:31;;;;;;;2.87;1.83;;;;;;;15.15;52.72;101626.31;5019188;28;20234;-69
2021/10/18 11:32:06;;;;;;;3.40;1.93;;;;;;;15.18;52.87;101630.63;5021233;28;20210;-69
2021/10/18 11:34:32;;;;;;;2.00;1.80;;;;;;;15.21;52.41;101631.28;5019191;28;20221;-69
2021/10/18 11:36:59;;;;;;;3.90;1.80;;;;;;;15.24;52.74;101631.03;5020806;28;20426;-69
2021/10/18 11:39:28;;;;;;;3.13;2.00;;;;;;;15.27;52.97;101621.94;5023986;28;20211;-68
2021/10/18 11:42:10;;;;;;;2.70;1.83;;;;;;;15.28;52.88;101626.34;5024207;28;20669;-69
2021/10/18 11:44:53;;;;;;;3.00;1.73;;;;;;;15.31;52.73;101609.16;5020893;28;20739;-69
2021/10/18 11:47:32;;;;;;;3.40;1.80;;;;;;;15.33;52.52;101613.47;5021919;28;20314;-68
2021/10/18 11:50:15;;;;;;;2.97;1.63;;;;;;;15.34;52.78;101612.50;5020524;28;20586;-69
2021/10/18 11:52:46;;;;;;;3.83;2.10;;;;;;;15.35;52.76;101606.19;5022329;28;20207;-69
2021/10/18 11:55:15;;;;;;;3.10;1.53;;;;;;;15.35;52.44;101605.31;5021310;28;20745;-70
2021/10/18 11:57:44;;;;;;;2.57;1.80;;;;;;;15.37;52.59;101590.84;5018305;28;20256;-69
2021/10/18 12:00:18;;;;;;;3.17;1.80;;;;;;;15.38;52.23;101594.38;5024683;28;20214;-69
2021/10/18 12:02:46;;;;;;;4.33;2.10;;;;;;;15.37;52.71;101582.78;5023119;28;20456;-65
2021/10/18 12:05:14;;;;;;;2.37;1.70;;;;;;;15.40;52.69;101584.41;5017553;28;20230;-69
2021/10/18 12:07:46;;;;;;;4.00;2.07;;;;;;;15.42;53.21;101569.88;5021982;28;20222;-69
2021/10/18 12:10:18;;;;;;;3.47;2.07;;;;;;;15.45;53.40;101568.81;5021332;28;20698;-68
2021/10/18 12:13:07;;;;;;;3.60;2.13;;;;;;;15.47;53.76;101558.84;5023440;28;20210;-69
2021/10/18 12:15:38;;;;;;;2.47;2.00;;;;;;;15.48;53.79;101549.81;5026056;28;20237;-67
2021/10/18 12:18:06;;;;;;;2.63;1.67;;;;;;;15.50;53.98;101555.94;5027341;28;20260;-66
2021/10/18 12:20:33;;;;;;;4.43;1.90;;;;;;;15.53;53.84;101545.84;5028608;28;20204;-69
2021/10/18 12:23:05;;;;;;;2.00;1.80;;;;;;;15.56;53.97;101539.44;5032377;28;20689;-69
2021/10/18 12:25:33;;;;;;;4.07;1.97;;;;;;;15.56;53.69;101550.19;5031304;28;20230;-69
2021/10/18 12:28:00;;;;;;;6.90;2.20;;;;;;;15.54;53.90;101535.97;5028324;28;20226;-68
2021/10/18 12:30:38;;;;;;;3.20;1.70;;;;;;;15.51;53.52;101530.81;5033021;28;20269;-67
2021/10/18 12:33:09;;;;;;;2.13;1.60;;;;;;;15.47;53.75;101527.47;5037995;28;20206;-65
2021/10/18 12:35:36;;;;;;;1.70;1.60;;;;;;;15.43;53.57;101533.16;5033789;28;20221;-65
2021/10/18 12:38:09;;;;;;;2.23;1.70;;;;;;;15.42;53.76;101526.06;5036186;28;20197;-69
2021/10/18 12:40:35;;;;;;;3.33;2.03;;;;;;;15.41;53.57;101521.66;5037974;28;20199;-68
2021/10/18 12:43:02;;;;;;;5.13;2.20;;;;;;;15.39;53.52;101532.53;5035368;28;20538;-68
2021/10/18 12:45:34;;;;;;;3.23;2.17;;;;;;;15.38;53.45;101529.97;5036534;28;20222;-68